Airport View

Enter AWOS ICAO identifier for current METAR.

ex. KFNL

KVER 290325Z AUTO RMK AO2 PWINO PNO TSNO

29 Sep 2020 03:02

Frequency: 119.625

Phone: 660-882-5454

Other Area AWOS: KCOU - KMHL - KDMO - KJEF

TAF KCOU 282332Z 2900/2924 30012G20KT P6SM SCT050 BKN080 FM290200 30007KT P6SM SCT060 BKN100 FM291600 29011G18KT P6SM SCT040 BKN100